createdAt,value
2017-10-13T00:00:16.214Z,12.00
2017-10-13T00:02:44.479Z,12.00
2017-10-13T00:05:11.931Z,12.00
2017-10-13T00:07:39.410Z,12.00
2017-10-13T00:10:07.649Z,12.00
2017-10-13T00:12:35.142Z,12.00
2017-10-13T00:15:03.589Z,12.00
2017-10-13T00:17:31.060Z,12.00
2017-10-13T00:19:59.308Z,12.10
2017-10-13T00:22:26.843Z,12.00
2017-10-13T00:24:54.318Z,12.00
2017-10-13T00:27:22.413Z,11.90
2017-10-13T00:29:49.915Z,11.90
2017-10-13T00:32:17.384Z,12.00
2017-10-13T00:34:44.867Z,12.00
2017-10-13T00:37:12.545Z,12.00
2017-10-13T00:39:40.052Z,12.00
2017-10-13T00:42:07.514Z,12.10
2017-10-13T00:44:34.975Z,12.00
2017-10-13T00:47:02.470Z,12.00
2017-10-13T00:49:29.938Z,12.00
2017-10-13T00:51:57.428Z,12.00
2017-10-13T00:54:24.903Z,12.00
2017-10-13T00:56:52.411Z,12.00
2017-10-13T00:59:19.970Z,12.00
2017-10-13T01:01:47.443Z,12.00
2017-10-13T01:04:15.689Z,12.00
2017-10-13T01:06:43.217Z,12.00
2017-10-13T01:09:10.691Z,12.00
2017-10-13T01:11:38.223Z,12.00
2017-10-13T01:14:05.705Z,11.90
2017-10-13T01:16:33.181Z,11.90
2017-10-13T01:19:00.661Z,11.90
2017-10-13T01:21:28.931Z,11.90
2017-10-13T01:23:57.188Z,11.90
2017-10-13T01:26:24.821Z,11.80
2017-10-13T01:28:52.362Z,11.80
2017-10-13T01:31:19.825Z,11.70
2017-10-13T01:33:47.417Z,11.70
2017-10-13T01:36:14.913Z,11.80
2017-10-13T01:38:42.393Z,11.80
2017-10-13T01:41:09.873Z,11.80
2017-10-13T01:43:37.334Z,11.80
2017-10-13T01:46:04.820Z,11.80
2017-10-13T01:48:33.054Z,12.10
2017-10-13T01:51:00.545Z,12.10
2017-10-13T01:53:28.013Z,12.20
2017-10-13T01:55:56.265Z,12.30
2017-10-13T01:58:23.754Z,12.30
2017-10-13T02:00:51.986Z,11.90
2017-10-13T02:03:19.485Z,11.90
2017-10-13T02:05:47.814Z,11.70
2017-10-13T02:08:15.366Z,11.70
2017-10-13T02:10:42.842Z,11.70
2017-10-13T02:13:10.329Z,11.70
2017-10-13T02:15:38.557Z,11.70
2017-10-13T02:18:06.040Z,11.80
2017-10-13T02:20:33.674Z,11.80
2017-10-13T02:23:01.143Z,11.80
2017-10-13T02:25:28.617Z,11.80
2017-10-13T02:27:56.166Z,11.70
2017-10-13T02:30:23.722Z,11.80
2017-10-13T02:32:51.214Z,11.90
2017-10-13T02:35:19.483Z,11.90
2017-10-13T02:37:47.737Z,11.80
2017-10-13T02:40:15.986Z,11.80
2017-10-13T02:42:43.567Z,11.80
2017-10-13T02:45:11.056Z,11.80
2017-10-13T02:47:39.300Z,11.70
2017-10-13T02:50:06.785Z,11.70
2017-10-13T02:52:35.021Z,11.70
2017-10-13T02:55:02.509Z,11.70
2017-10-13T02:57:29.998Z,11.70
2017-10-13T02:59:57.479Z,11.80
2017-10-13T03:02:24.953Z,11.80
2017-10-13T03:04:52.429Z,11.80
2017-10-13T03:07:19.925Z,11.90
2017-10-13T03:09:47.400Z,12.00
2017-10-13T03:12:14.883Z,12.20
2017-10-13T03:14:42.517Z,12.00
2017-10-13T03:17:10.153Z,11.90
2017-10-13T03:19:38.380Z,12.00
2017-10-13T03:22:05.871Z,12.00
2017-10-13T03:24:34.114Z,12.00
2017-10-13T03:27:01.570Z,12.00
2017-10-13T03:29:29.061Z,12.00
2017-10-13T03:31:57.298Z,12.10
2017-10-13T03:34:24.794Z,12.10
2017-10-13T03:36:53.020Z,12.20
2017-10-13T03:39:20.513Z,12.20
2017-10-13T03:41:48.000Z,12.20
2017-10-13T03:44:15.518Z,12.20
2017-10-13T03:46:43.004Z,12.30
2017-10-13T03:49:11.238Z,12.30
2017-10-13T03:51:38.725Z,12.30
2017-10-13T03:54:06.960Z,12.20
2017-10-13T03:56:34.675Z,12.20
2017-10-13T03:59:02.924Z,12.30
2017-10-13T04:01:30.516Z,12.30
2017-10-13T04:03:58.088Z,12.30
2017-10-13T04:06:25.553Z,12.40
2017-10-13T04:08:53.038Z,12.40
2017-10-13T04:11:20.530Z,12.40
2017-10-13T04:13:48.786Z,12.60
2017-10-13T04:16:16.263Z,12.50
2017-10-13T04:18:44.512Z,12.70
2017-10-13T04:21:12.079Z,12.60
2017-10-13T04:23:39.575Z,12.60
2017-10-13T04:26:07.050Z,12.50
2017-10-13T04:28:34.544Z,12.50
2017-10-13T04:31:02.173Z,12.60
2017-10-13T04:33:29.662Z,12.60
2017-10-13T04:35:57.138Z,12.60
2017-10-13T04:38:25.406Z,12.70
2017-10-13T04:40:52.913Z,12.70
2017-10-13T04:43:20.387Z,12.70
2017-10-13T04:45:47.926Z,12.70
2017-10-13T04:48:15.696Z,12.70
2017-10-13T04:50:43.179Z,12.80
2017-10-13T04:53:10.643Z,12.70
2017-10-13T04:55:38.248Z,12.60
2017-10-13T04:58:05.702Z,12.70
2017-10-13T05:00:33.193Z,12.70
2017-10-13T05:03:00.669Z,12.60
2017-10-13T05:05:28.151Z,12.60
2017-10-13T05:07:56.387Z,12.70
2017-10-13T05:10:23.889Z,12.60
2017-10-13T05:12:52.113Z,12.70
2017-10-13T05:15:19.618Z,12.70
2017-10-13T05:17:47.190Z,12.70
2017-10-13T05:20:15.472Z,12.80
2017-10-13T05:22:43.724Z,12.80
2017-10-13T05:25:11.957Z,12.80
2017-10-13T05:27:39.440Z,12.80
2017-10-13T05:30:06.901Z,12.80
2017-10-13T05:32:34.410Z,12.70
2017-10-13T05:35:01.872Z,12.70
2017-10-13T05:37:29.408Z,12.70
2017-10-13T05:39:56.887Z,12.70
2017-10-13T05:42:24.478Z,12.70
2017-10-13T05:44:51.942Z,12.60
2017-10-13T05:47:19.433Z,12.60
2017-10-13T05:49:47.686Z,12.60
2017-10-13T05:52:15.163Z,12.60
2017-10-13T05:54:43.419Z,12.60
2017-10-13T05:57:10.886Z,12.60
2017-10-13T05:59:39.149Z,12.70
2017-10-13T06:02:07.374Z,12.80
2017-10-13T06:04:35.701Z,12.80
2017-10-13T06:07:03.334Z,12.80
2017-10-13T06:09:30.832Z,12.70
2017-10-13T06:11:58.285Z,12.80
2017-10-13T06:14:26.538Z,12.90
2017-10-13T06:16:53.997Z,12.80
2017-10-13T06:19:22.276Z,12.80
2017-10-13T06:21:49.951Z,12.80
2017-10-13T06:24:18.538Z,12.80
2017-10-13T06:26:46.545Z,12.80
2017-10-13T06:29:14.127Z,12.80
2017-10-13T06:31:41.665Z,12.80
2017-10-13T06:34:09.280Z,12.90
2017-10-13T06:36:36.755Z,12.90
2017-10-13T06:39:04.985Z,13.00
2017-10-13T06:41:32.458Z,13.00
2017-10-13T06:43:59.933Z,13.00
2017-10-13T06:46:28.185Z,13.10
2017-10-13T06:48:55.714Z,13.10
2017-10-13T06:51:23.265Z,13.10
2017-10-13T06:53:50.738Z,13.20
2017-10-13T06:56:18.232Z,13.30
2017-10-13T06:58:46.484Z,13.60
2017-10-13T07:01:13.966Z,13.50
2017-10-13T07:03:42.215Z,15.20
2017-10-13T07:06:09.713Z,15.20
2017-10-13T07:08:37.944Z,15.20
2017-10-13T07:11:05.413Z,15.20
2017-10-13T07:13:32.909Z,15.00
2017-10-13T07:16:01.246Z,14.70
2017-10-13T07:18:28.710Z,14.70
2017-10-13T07:20:56.232Z,14.60
2017-10-13T07:23:23.706Z,14.50
2017-10-13T07:25:51.185Z,14.40
2017-10-13T07:28:18.852Z,14.40
2017-10-13T07:30:46.347Z,14.40
2017-10-13T07:33:13.817Z,14.40
2017-10-13T07:35:41.397Z,14.50
2017-10-13T07:38:08.862Z,14.60
2017-10-13T07:40:37.359Z,14.60
2017-10-13T07:43:04.831Z,14.50
2017-10-13T07:45:33.074Z,14.50
2017-10-13T07:48:00.529Z,14.50
2017-10-13T07:50:28.008Z,14.50
2017-10-13T07:52:55.478Z,14.50
2017-10-13T07:55:23.721Z,14.80
2017-10-13T07:57:51.225Z,14.80
2017-10-13T08:00:18.912Z,15.00
2017-10-13T08:02:46.402Z,15.10
2017-10-13T08:05:13.877Z,15.20
2017-10-13T08:07:42.167Z,15.30
2017-10-13T08:10:10.401Z,15.30
2017-10-13T08:12:37.895Z,15.30
2017-10-13T08:15:06.146Z,15.40
2017-10-13T08:17:33.645Z,15.40
2017-10-13T08:20:01.128Z,15.40
2017-10-13T08:22:28.670Z,15.50
2017-10-13T08:24:56.158Z,15.50
2017-10-13T08:27:23.648Z,15.60
2017-10-13T08:29:51.905Z,15.70
2017-10-13T08:32:19.533Z,15.70
2017-10-13T08:34:47.015Z,15.80
2017-10-13T08:37:14.469Z,15.80
2017-10-13T08:39:41.954Z,15.90
2017-10-13T08:42:10.329Z,15.90
2017-10-13T08:44:37.809Z,15.90
2017-10-13T08:47:06.068Z,16.00
2017-10-13T08:49:34.334Z,16.10
2017-10-13T08:52:01.821Z,16.10
2017-10-13T08:54:29.293Z,16.10
2017-10-13T08:56:56.782Z,16.20
2017-10-13T08:59:24.297Z,16.30
2017-10-13T09:01:52.538Z,16.30
2017-10-13T09:04:20.923Z,16.30
2017-10-13T09:06:48.392Z,16.20
2017-10-13T09:09:16.653Z,16.30
2017-10-13T09:11:44.125Z,16.20
2017-10-13T09:14:12.438Z,16.30
2017-10-13T09:16:39.901Z,16.30
2017-10-13T09:19:08.062Z,16.30
2017-10-13T09:21:35.553Z,16.40
2017-10-13T09:24:03.489Z,16.40
2017-10-13T09:26:31.312Z,16.40
2017-10-13T09:28:58.851Z,16.50
2017-10-13T09:31:26.317Z,16.50
2017-10-13T09:33:53.777Z,16.60
2017-10-13T09:36:22.122Z,16.60
2017-10-13T09:38:49.589Z,16.60
2017-10-13T09:41:17.071Z,16.60
2017-10-13T09:43:45.304Z,16.60
2017-10-13T09:46:12.807Z,16.70
2017-10-13T09:48:41.064Z,16.80
2017-10-13T09:51:08.529Z,16.70
2017-10-13T09:53:36.073Z,16.80
2017-10-13T09:56:03.700Z,16.80
2017-10-13T09:58:31.177Z,16.80
2017-10-13T10:00:58.674Z,16.80
2017-10-13T10:03:26.971Z,16.90
2017-10-13T10:05:54.454Z,16.90
2017-10-13T10:08:22.067Z,17.00
2017-10-13T10:10:50.301Z,17.20
2017-10-13T10:13:17.787Z,17.20
2017-10-13T10:15:45.278Z,17.20
2017-10-13T10:18:12.772Z,17.20
2017-10-13T10:20:40.850Z,17.20
2017-10-13T10:23:08.348Z,17.20
2017-10-13T10:25:36.603Z,17.20
2017-10-13T10:28:04.082Z,17.20
2017-10-13T10:30:32.355Z,17.20
2017-10-13T10:33:00.594Z,17.20
2017-10-13T10:35:28.098Z,17.20
2017-10-13T10:37:55.572Z,17.30
2017-10-13T10:40:23.026Z,17.40
2017-10-13T10:42:50.527Z,17.60
2017-10-13T10:45:17.991Z,17.70
2017-10-13T10:47:45.473Z,17.80
2017-10-13T10:50:13.718Z,17.90
2017-10-13T10:52:41.206Z,17.90
2017-10-13T10:55:09.445Z,18.20
2017-10-13T10:57:36.937Z,18.20
2017-10-13T11:00:04.420Z,18.40
2017-10-13T11:02:31.938Z,18.50
2017-10-13T11:04:59.393Z,18.50
2017-10-13T11:07:26.853Z,18.50
2017-10-13T11:09:54.338Z,18.40
2017-10-13T11:12:22.131Z,18.30
2017-10-13T11:14:49.617Z,18.30
2017-10-13T11:17:17.084Z,18.30
2017-10-13T11:19:44.576Z,18.30
2017-10-13T11:22:12.033Z,18.30
2017-10-13T11:24:39.526Z,18.40
2017-10-13T11:27:07.044Z,18.40
2017-10-13T11:29:34.534Z,18.50
2017-10-13T11:32:02.087Z,18.50
2017-10-13T11:34:29.550Z,18.60
2017-10-13T11:36:57.042Z,18.60
2017-10-13T11:39:24.682Z,18.80
2017-10-13T11:41:52.170Z,18.90
2017-10-13T11:44:19.634Z,19.00
2017-10-13T11:46:47.899Z,19.20
2017-10-13T11:49:15.349Z,19.20
2017-10-13T11:51:42.810Z,19.30
2017-10-13T11:54:10.353Z,19.20
2017-10-13T11:56:38.061Z,19.10
2017-10-13T11:59:06.290Z,19.00
2017-10-13T12:01:33.791Z,19.00
2017-10-13T12:04:01.249Z,18.90
2017-10-13T12:06:28.725Z,18.90
2017-10-13T12:08:56.208Z,18.90
2017-10-13T12:11:23.756Z,18.90
2017-10-13T12:13:51.237Z,19.00
2017-10-13T12:16:20.200Z,19.30
2017-10-13T12:18:47.697Z,19.30
2017-10-13T12:21:15.152Z,20.30
2017-10-13T12:23:43.389Z,20.30
2017-10-13T12:26:10.869Z,20.30
2017-10-13T12:28:38.365Z,20.00
2017-10-13T12:31:06.607Z,20.00
2017-10-13T12:33:34.078Z,20.00
2017-10-13T12:36:01.554Z,20.30
2017-10-13T12:38:29.012Z,20.10
2017-10-13T12:40:56.497Z,19.80
2017-10-13T12:43:23.961Z,19.50
2017-10-13T12:45:51.461Z,19.30
2017-10-13T12:48:18.932Z,19.60
2017-10-13T12:50:47.222Z,19.30
2017-10-13T12:53:14.701Z,19.30
2017-10-13T12:55:42.225Z,19.20
2017-10-13T12:58:10.480Z,19.10
2017-10-13T13:00:38.194Z,19.10
2017-10-13T13:03:05.657Z,19.10
2017-10-13T13:05:33.125Z,19.30
2017-10-13T13:08:00.626Z,19.50
2017-10-13T13:10:28.098Z,19.90
2017-10-13T13:12:56.338Z,20.20
2017-10-13T13:15:23.886Z,20.20
2017-10-13T13:17:51.375Z,20.00
2017-10-13T13:20:19.728Z,19.90
2017-10-13T13:22:47.197Z,19.80
2017-10-13T13:25:14.667Z,19.80
2017-10-13T13:27:42.907Z,19.80
2017-10-13T13:30:10.970Z,19.70
2017-10-13T13:32:38.421Z,19.60
2017-10-13T13:35:05.912Z,19.40
2017-10-13T13:37:33.441Z,19.30
2017-10-13T13:40:00.948Z,19.30
2017-10-13T13:42:29.385Z,19.30
2017-10-13T13:44:56.875Z,19.30
2017-10-13T13:47:24.348Z,19.40
2017-10-13T13:49:52.593Z,19.60
2017-10-13T13:52:20.085Z,19.60
2017-10-13T13:54:48.333Z,19.70
2017-10-13T13:57:16.582Z,19.60
2017-10-13T13:59:44.575Z,19.60
2017-10-13T14:02:12.304Z,19.70
2017-10-13T14:04:39.774Z,19.90
2017-10-13T14:07:07.258Z,19.90
2017-10-13T14:09:34.811Z,19.80
2017-10-13T14:12:02.276Z,19.70
2017-10-13T14:14:30.546Z,19.40
2017-10-13T14:16:58.034Z,19.40
2017-10-13T14:19:25.539Z,19.30
2017-10-13T14:21:53.105Z,19.20
2017-10-13T14:24:20.678Z,19.20
2017-10-13T14:26:48.135Z,19.10
2017-10-13T14:29:15.745Z,19.10
2017-10-13T14:31:43.224Z,19.10
2017-10-13T14:34:10.717Z,19.00
2017-10-13T14:36:38.959Z,19.00
2017-10-13T14:39:06.519Z,19.00
2017-10-13T14:41:33.976Z,18.90
2017-10-13T14:44:01.441Z,18.90
2017-10-13T14:46:28.948Z,18.90
2017-10-13T14:48:56.405Z,18.90
2017-10-13T14:51:23.892Z,18.90
2017-10-13T14:53:51.367Z,19.00
2017-10-13T14:56:18.879Z,19.00
2017-10-13T14:58:46.348Z,19.00
2017-10-13T15:01:13.845Z,19.00
2017-10-13T15:03:41.317Z,18.90
2017-10-13T15:06:08.920Z,18.90
2017-10-13T15:08:36.547Z,18.90
2017-10-13T15:11:04.817Z,18.90
2017-10-13T15:13:33.046Z,19.10
2017-10-13T15:16:00.519Z,19.00
2017-10-13T15:18:28.001Z,19.10
2017-10-13T15:20:55.487Z,19.10
2017-10-13T15:23:22.973Z,19.10
2017-10-13T15:25:55.494Z,19.10
2017-10-13T15:28:28.654Z,19.10
2017-10-13T15:31:01.360Z,19.00
2017-10-13T15:33:34.505Z,19.00
2017-10-13T15:36:07.710Z,18.90
2017-10-13T15:38:41.006Z,18.90
2017-10-13T15:41:14.302Z,18.80
2017-10-13T15:43:47.529Z,18.80
2017-10-13T15:46:21.395Z,18.80
2017-10-13T15:48:54.601Z,18.80
2017-10-13T15:51:27.873Z,18.80
2017-10-13T15:53:55.360Z,18.80
2017-10-13T15:56:23.590Z,18.80
2017-10-13T15:58:51.224Z,18.80
2017-10-13T16:01:18.725Z,18.80
2017-10-13T16:03:46.275Z,18.80
2017-10-13T16:06:13.769Z,18.80
2017-10-13T16:08:41.245Z,18.70
2017-10-13T16:11:09.508Z,18.60
2017-10-13T16:13:36.982Z,18.60
2017-10-13T16:16:05.238Z,18.60
2017-10-13T16:18:32.718Z,18.60
2017-10-13T16:21:00.981Z,18.50
2017-10-13T16:23:29.219Z,18.40
2017-10-13T16:25:56.887Z,18.40
2017-10-13T16:28:24.370Z,18.40
2017-10-13T16:30:51.825Z,18.30
2017-10-13T16:33:20.827Z,18.30
2017-10-13T16:35:49.070Z,18.20
2017-10-13T16:38:16.551Z,18.20
2017-10-13T16:40:44.807Z,18.20
2017-10-13T16:43:12.394Z,18.10
2017-10-13T16:45:40.625Z,18.10
2017-10-13T16:48:08.137Z,18.10
2017-10-13T16:50:35.653Z,18.10
2017-10-13T16:53:03.295Z,18.10
2017-10-13T16:55:30.755Z,18.10
2017-10-13T16:57:58.249Z,18.10
2017-10-13T17:00:26.501Z,18.10
2017-10-13T17:02:53.965Z,18.10
2017-10-13T17:05:22.220Z,18.10
2017-10-13T17:07:49.695Z,18.10
2017-10-13T17:10:17.966Z,18.10
2017-10-13T17:12:45.456Z,18.10
2017-10-13T17:15:13.715Z,18.10
2017-10-13T17:17:41.175Z,18.10
2017-10-13T17:20:10.170Z,18.10
2017-10-13T17:22:37.694Z,18.10
2017-10-13T17:27:56.913Z,18.10
2017-10-13T17:30:26.192Z,18.10
2017-10-13T17:32:54.505Z,18.10
2017-10-13T17:35:24.253Z,18.10
2017-10-13T17:37:51.831Z,18.00
2017-10-13T17:40:24.044Z,18.00
2017-10-13T17:42:55.975Z,18.00
2017-10-13T17:45:26.036Z,18.00
2017-10-13T17:47:53.913Z,18.00
2017-10-13T17:50:26.232Z,18.10
2017-10-13T17:52:53.709Z,18.10
2017-10-13T17:55:21.934Z,18.10
2017-10-13T17:57:49.440Z,18.10
2017-10-13T18:00:17.711Z,18.20
2017-10-13T18:02:45.986Z,18.20
2017-10-13T18:05:13.501Z,18.20
2017-10-13T18:07:41.911Z,18.20
2017-10-13T18:10:10.168Z,18.20
2017-10-13T18:12:37.699Z,18.10
2017-10-13T18:15:05.179Z,18.10
2017-10-13T18:17:32.675Z,18.10
2017-10-13T18:20:01.003Z,18.10
2017-10-13T18:22:28.460Z,18.00
2017-10-13T18:24:55.963Z,18.10
2017-10-13T18:27:23.417Z,18.20
2017-10-13T18:29:51.665Z,18.10
2017-10-13T18:32:19.190Z,18.10
2017-10-13T18:34:46.711Z,18.10
2017-10-13T18:37:14.947Z,18.10
2017-10-13T18:39:42.404Z,18.10
2017-10-13T18:42:09.894Z,18.10
2017-10-13T18:44:37.369Z,18.10
2017-10-13T18:47:04.857Z,18.10
2017-10-13T18:49:32.325Z,18.10
2017-10-13T18:51:59.805Z,18.10
2017-10-13T18:54:27.305Z,18.00
2017-10-13T18:56:55.539Z,18.00
2017-10-13T18:59:23.022Z,18.00
2017-10-13T19:01:51.284Z,18.00
2017-10-13T19:04:18.745Z,17.90
2017-10-13T19:06:47.007Z,17.90
2017-10-13T19:09:14.481Z,17.90
2017-10-13T19:11:42.741Z,17.90
2017-10-13T19:14:10.362Z,17.90
2017-10-13T19:16:37.849Z,17.90
2017-10-13T19:19:05.335Z,17.90
2017-10-13T19:21:33.678Z,17.80
2017-10-13T19:24:01.154Z,17.80
2017-10-13T19:26:28.632Z,17.70
2017-10-13T19:28:56.881Z,17.70
2017-10-13T19:31:24.463Z,17.60
2017-10-13T19:33:53.322Z,17.60
2017-10-13T19:36:22.641Z,17.60
2017-10-13T19:38:50.106Z,17.60
2017-10-13T19:41:18.340Z,17.60
2017-10-13T19:43:45.913Z,17.60
2017-10-13T19:46:13.396Z,17.50
2017-10-13T19:48:41.638Z,17.50
2017-10-13T19:51:09.232Z,17.50
2017-10-13T19:53:37.527Z,17.50
2017-10-13T19:56:05.005Z,17.50
2017-10-13T19:58:32.476Z,17.50
2017-10-13T20:00:59.954Z,17.60
2017-10-13T20:03:28.191Z,17.50
2017-10-13T20:05:55.697Z,17.50
2017-10-13T20:08:23.189Z,17.60
2017-10-13T20:10:50.681Z,17.60
2017-10-13T20:13:18.238Z,17.60
2017-10-13T20:15:45.734Z,17.60
2017-10-13T20:18:13.195Z,17.60
2017-10-13T20:20:41.454Z,17.50
2017-10-13T20:23:08.949Z,17.50
2017-10-13T20:25:37.239Z,17.40
2017-10-13T20:28:04.721Z,17.30
2017-10-13T20:30:32.284Z,17.40
2017-10-13T20:32:59.852Z,17.30
2017-10-13T20:35:27.340Z,17.30
2017-10-13T20:37:55.581Z,17.30
2017-10-13T20:40:23.990Z,17.30
2017-10-13T20:42:51.469Z,17.20
2017-10-13T20:45:18.941Z,17.20
2017-10-13T20:47:46.439Z,17.20
2017-10-13T20:50:13.932Z,17.20
2017-10-13T20:52:42.168Z,17.10
2017-10-13T20:55:09.650Z,17.10
2017-10-13T20:57:37.931Z,17.20
2017-10-13T21:00:05.441Z,17.20
2017-10-13T21:02:33.026Z,17.10
2017-10-13T21:05:00.547Z,17.10
2017-10-13T21:07:28.009Z,17.10
2017-10-13T21:09:55.525Z,17.00
2017-10-13T21:12:23.885Z,16.80
2017-10-13T21:14:51.401Z,16.80
2017-10-13T21:17:18.939Z,16.90
2017-10-13T21:19:46.463Z,16.90
2017-10-13T21:22:13.970Z,16.90
2017-10-13T21:24:41.441Z,17.00
2017-10-13T21:27:08.939Z,17.00
2017-10-13T21:29:36.410Z,17.00
2017-10-13T21:32:04.682Z,17.00
2017-10-13T21:34:32.950Z,17.00
2017-10-13T21:37:00.441Z,16.90
2017-10-13T21:39:28.018Z,16.90
2017-10-13T21:41:55.521Z,16.90
2017-10-13T21:44:22.972Z,16.80
2017-10-13T21:46:50.518Z,16.80
2017-10-13T21:49:18.015Z,16.80
2017-10-13T21:51:45.647Z,16.80
2017-10-13T21:54:13.177Z,16.70
2017-10-13T21:56:40.642Z,16.70
2017-10-13T21:59:08.178Z,16.70
2017-10-13T22:01:35.647Z,16.70
2017-10-13T22:04:03.209Z,16.70
2017-10-13T22:06:30.712Z,16.60
2017-10-13T22:08:58.959Z,16.60
2017-10-13T22:11:27.222Z,16.50
2017-10-13T22:13:54.709Z,16.50
2017-10-13T22:16:22.976Z,16.40
2017-10-13T22:18:51.239Z,16.40
2017-10-13T22:21:18.729Z,16.40
2017-10-13T22:23:46.968Z,16.50
2017-10-13T22:26:14.430Z,16.50
2017-10-13T22:28:42.084Z,16.50
2017-10-13T22:31:09.560Z,16.50
2017-10-13T22:33:38.011Z,16.40
2017-10-13T22:36:05.515Z,16.40
2017-10-13T22:38:33.761Z,16.40
2017-10-13T22:41:01.277Z,16.40
2017-10-13T22:43:28.872Z,16.40
2017-10-13T22:45:56.434Z,16.40
2017-10-13T22:48:23.929Z,16.30
2017-10-13T22:50:51.401Z,16.30
2017-10-13T22:53:18.907Z,16.30
2017-10-13T22:55:46.393Z,16.40
2017-10-13T22:58:14.662Z,16.30
2017-10-13T23:00:42.169Z,16.30
2017-10-13T23:03:09.700Z,16.20
2017-10-13T23:05:37.187Z,16.20
2017-10-13T23:08:04.645Z,16.10
2017-10-13T23:10:32.194Z,16.00
2017-10-13T23:12:59.669Z,15.90
2017-10-13T23:15:27.196Z,15.90
2017-10-13T23:17:54.667Z,15.90
2017-10-13T23:20:22.158Z,15.90
2017-10-13T23:22:50.399Z,15.80
2017-10-13T23:25:17.861Z,15.80
2017-10-13T23:27:45.446Z,15.80
2017-10-13T23:30:12.924Z,15.70
2017-10-13T23:32:40.464Z,15.70
2017-10-13T23:35:09.430Z,15.60
2017-10-13T23:37:36.993Z,15.60
2017-10-13T23:40:04.444Z,15.60
2017-10-13T23:42:31.916Z,15.60
2017-10-13T23:44:59.407Z,15.60
2017-10-13T23:47:27.621Z,15.60
2017-10-13T23:49:55.145Z,15.60
2017-10-13T23:52:23.365Z,15.50
2017-10-13T23:54:50.857Z,15.50
2017-10-13T23:57:18.400Z,15.50
2017-10-13T23:59:46.626Z,15.50
